MET1146 - Portland to Ontario

Boeing 737-200
711MT
2 hrs 00 mins
730 nm
Scheduled - M

Bid/PiRep Status

Bid was submitted on Dec 28 2016.

PiRep # 74542: Approved by Dave Nichols on January 1st, 2017 4:06 UTC

Departure

Departing from
Portland (PDX)
Departure gate
Scheduled Departure
GMT 1930
Local 1230
METAR KPDX 260253Z 33006KT 10SM FEW050 FEW120 22/08 A2978 RMK AO2 SLP085 T02170078 53004
TAF KPDX 260306Z 2603/2624 33008KT P6SM FEW050 FM260500 32005KT P6SM SKC FM260800 VRB03KT P6SM SKC FM262200 34007KT P6SM SKC

Arrival

Arriving at
Ontario (ONT)
Arrival gate
Scheduled Arrival
GMT 2130
Local 1430
METAR KONT 260253Z 25010KT 10SM FEW045 FEW200 16/09 A2984 RMK AO2 SLP101 T01610089 53007
TAF KONT 252337Z 2600/2706 25013G18KT P6SM SCT040 FM260400 25010KT P6SM OVC025 FM260900 25006KT P6SM -DZ OVC020 FM261600 25006KT P6SM OVC035 FM262200 25010G17KT P6SM BKN040 FM270500 25006KT P6SM BKN030

Route Map

Planning Resources

LHV J5 EHF ZIGGY4
KPDX POWEL LKV HARTT PYRAM FMG TILTS SONNY TIOGA PINNI EHF KONT
KDPX BTG LKV HARTT PYRAM FMG TILTS SONNY TIOGA PINNI EHF ZIGGY KONT
RIVER6 BTG J189 AVE EHF ZIGGY4
KPDX DCT URBIA V165 LKV J5 EHF STAR KONT
Route:
OFP Layout:
Units:
Detailed Navlog:
ETOPS Planning:
Plan Stepclimbs:
Runway Analysis:
Include NOTAMS:
FIR NOTAMS:
Flight Maps:

Popularity

Hub Current Bids PiReps this month Total PiReps
KMCI 0 0 3
KLAX 0 0 2
KBOS 0 0 0